^^
Saratoga-Weather Station Historical Data
Daily Summary for September 9, 2020 Units:  Both    English   Metric
Daily Weekly Monthly Yearly Custom
  High: Low: Average:
Temperature: 37 °F /  2.8 °C 32.9 °F /  0.5 °C 34.5 °F /  1.4 °C
Dew Point: 35.6 °F /  2 °C 30.7 °F /  -0.7 °C 32.7 °F /  0.4 °C
Humidity: 96% 90% 93%
Wind Speed: 8.1mph /  13km/h - 1.8mph /  2.9km/h
Wind Gust: 10mph /  16.1km/h - -
Wind- - WSW
Pressure: 29.9 in /  1011.9 hPa 29.7 in /  1006.4 hPa -
Precipitation: 0 in /  0.0 mm    
Historical Graphs
 
 
Tabular Data for September 9, 2020
Time Temperature Dew Point Pressure Wind Wind Speed Wind Gust Humidity Rainfall Rate (Hourly) solar
00:02 36.5 °F /  2.5 °C 35.4 °F /  1.9 °C 29.7in /  1006.4hPa WNW 2.9mph /  4.7km/h 7mph /  11.3km/h 96% 0in /  0.0mm 0 W/m2
00:07 36.5 °F /  2.5 °C 35.2 °F /  1.8 °C 29.7in /  1006.4hPa WNW 2.9mph /  4.7km/h 3mph /  4.8km/h 95% 0in /  0.0mm 0 W/m2
00:12 36.7 °F /  2.6 °C 35.4 °F /  1.9 °C 29.7in /  1006.4hPa SW 0.9mph /  1.4km/h 6mph /  9.7km/h 95% 0in /  0.0mm 0 W/m2
00:17 36.7 °F /  2.6 °C 35.4 °F /  1.9 °C 29.7in /  1006.4hPa WSW 4mph /  6.4km/h 4mph /  6.4km/h 95% 0in /  0.0mm 0 W/m2
00:22 36.7 °F /  2.6 °C 35.4 °F /  1.9 °C 29.7in /  1006.4hPa West 2.9mph /  4.7km/h 4mph /  6.4km/h 95% 0in /  0.0mm 0 W/m2
00:27 36.7 °F /  2.6 °C 35.4 °F /  1.9 °C 29.7in /  1006.4hPa WNW 0.9mph /  1.4km/h 1mph /  1.6km/h 95% 0in /  0.0mm 0 W/m2
00:32 36.7 °F /  2.6 °C 35.4 °F /  1.9 °C 29.7in /  1006.4hPa WNW 2.9mph /  4.7km/h 7mph /  11.3km/h 95% 0in /  0.0mm 0 W/m2
00:37 36.7 °F /  2.6 °C 35.4 °F /  1.9 °C 29.7in /  1006.4hPa West 2mph /  3.2km/h 3mph /  4.8km/h 95% 0in /  0.0mm 0 W/m2
00:42 36.7 °F /  2.6 °C 35.4 °F /  1.9 °C 29.7in /  1006.4hPa West 4mph /  6.4km/h 9mph /  14.5km/h 95% 0in /  0.0mm 0 W/m2
00:47 36.7 °F /  2.6 °C 35.4 °F /  1.9 °C 29.7in /  1006.8hPa West 6mph /  9.7km/h 7mph /  11.3km/h 95% 0in /  0.0mm 0 W/m2
00:52 36.7 °F /  2.6 °C 35.4 °F /  1.9 °C 29.7in /  1006.8hPa WNW 4.9mph /  7.9km/h 8mph /  12.9km/h 95% 0in /  0.0mm 0 W/m2
00:57 36.7 °F /  2.6 °C 35.4 °F /  1.9 °C 29.7in /  1006.8hPa WSW 6.9mph /  11.1km/h 7mph /  11.3km/h 95% 0in /  0.0mm 0 W/m2
01:02 36.7 °F /  2.6 °C 35.4 °F /  1.9 °C 29.7in /  1006.8hPa WSW 2.9mph /  4.7km/h 7mph /  11.3km/h 95% 0in /  0.0mm 0 W/m2
01:07 36.7 °F /  2.6 °C 35.4 °F /  1.9 °C 29.7in /  1006.8hPa WNW 2.9mph /  4.7km/h 6mph /  9.7km/h 95% 0in /  0.0mm 0 W/m2
01:12 36.9 °F /  2.7 °C 35.6 °F /  2 °C 29.7in /  1006.8hPa WNW 2.9mph /  4.7km/h 6mph /  9.7km/h 95% 0in /  0.0mm 0 W/m2
01:17 36.9 °F /  2.7 °C 35.2 °F /  1.8 °C 29.7in /  1006.8hPa West 2.9mph /  4.7km/h 7mph /  11.3km/h 94% 0in /  0.0mm 0 W/m2
01:22 36.9 °F /  2.7 °C 35.2 °F /  1.8 °C 29.7in /  1007.1hPa West 2.9mph /  4.7km/h 4mph /  6.4km/h 94% 0in /  0.0mm 0 W/m2
01:27 36.9 °F /  2.7 °C 35.2 °F /  1.8 °C 29.7in /  1007.1hPa WSW 4mph /  6.4km/h 7mph /  11.3km/h 94% 0in /  0.0mm 0 W/m2
01:32 36.9 °F /  2.7 °C 35.2 °F /  1.8 °C 29.7in /  1007.1hPa WNW 2mph /  3.2km/h 6mph /  9.7km/h 94% 0in /  0.0mm 0 W/m2
01:37 36.9 °F /  2.7 °C 35.2 °F /  1.8 °C 29.7in /  1007.1hPa West 2mph /  3.2km/h 4mph /  6.4km/h 94% 0in /  0.0mm 0 W/m2
01:42 37 °F /  2.8 °C 35.4 °F /  1.9 °C 29.7in /  1007.1hPa WSW 4.9mph /  7.9km/h 8mph /  12.9km/h 94% 0in /  0.0mm 0 W/m2
01:47 36.9 °F /  2.7 °C 35.2 °F /  1.8 °C 29.7in /  1007.1hPa West 4mph /  6.4km/h 8mph /  12.9km/h 94% 0in /  0.0mm 0 W/m2
01:52 37 °F /  2.8 °C 35.4 °F /  1.9 °C 29.7in /  1007.1hPa West 6mph /  9.7km/h 7mph /  11.3km/h 94% 0in /  0.0mm 0 W/m2
01:57 37 °F /  2.8 °C 35.4 °F /  1.9 °C 29.7in /  1007.1hPa West 2.9mph /  4.7km/h 7mph /  11.3km/h 94% 0in /  0.0mm 0 W/m2
02:02 37 °F /  2.8 °C 35.4 °F /  1.9 °C 29.7in /  1007.1hPa WNW 2.9mph /  4.7km/h 6mph /  9.7km/h 94% 0in /  0.0mm 0 W/m2
02:07 37 °F /  2.8 °C 35.2 °F /  1.8 °C 29.7in /  1007.1hPa WNW 2.9mph /  4.7km/h 6mph /  9.7km/h 93% 0in /  0.0mm 0 W/m2
02:12 37 °F /  2.8 °C 35.2 °F /  1.8 °C 29.8in /  1007.5hPa West 2mph /  3.2km/h 4mph /  6.4km/h 93% 0in /  0.0mm 0 W/m2
02:17 37 °F /  2.8 °C 35.2 °F /  1.8 °C 29.8in /  1007.5hPa West 6mph /  9.7km/h 6mph /  9.7km/h 93% 0in /  0.0mm 0 W/m2
02:22 37 °F /  2.8 °C 35.2 °F /  1.8 °C 29.8in /  1007.5hPa West 4mph /  6.4km/h 4mph /  6.4km/h 93% 0in /  0.0mm 0 W/m2
02:27 37 °F /  2.8 °C 35.2 °F /  1.8 °C 29.8in /  1007.5hPa WNW 6mph /  9.7km/h 6mph /  9.7km/h 93% 0in /  0.0mm 0 W/m2
02:32 37 °F /  2.8 °C 35.2 °F /  1.8 °C 29.8in /  1007.8hPa WNW 2mph /  3.2km/h 5mph /  8km/h 93% 0in /  0.0mm 0 W/m2
02:37 36.9 °F /  2.7 °C 35.1 °F /  1.7 °C 29.8in /  1007.8hPa WNW 2mph /  3.2km/h 3mph /  4.8km/h 93% 0in /  0.0mm 0 W/m2
02:42 36.9 °F /  2.7 °C 35.1 °F /  1.7 °C 29.8in /  1007.8hPa West 2.9mph /  4.7km/h 4mph /  6.4km/h 93% 0in /  0.0mm 0 W/m2
02:47 36.9 °F /  2.7 °C 35.1 °F /  1.7 °C 29.8in /  1007.8hPa WNW 2.9mph /  4.7km/h 4mph /  6.4km/h 93% 0in /  0.0mm 0 W/m2
02:52 36.7 °F /  2.6 °C 34.9 °F /  1.6 °C 29.8in /  1007.8hPa WSW 4.9mph /  7.9km/h 7mph /  11.3km/h 93% 0in /  0.0mm 0 W/m2
02:57 36.5 °F /  2.5 °C 34.7 °F /  1.5 °C 29.8in /  1007.8hPa WSW 4mph /  6.4km/h 4mph /  6.4km/h 93% 0in /  0.0mm 0 W/m2
03:02 36.3 °F /  2.4 °C 34.2 °F /  1.2 °C 29.8in /  1008.1hPa WNW 2mph /  3.2km/h 6mph /  9.7km/h 92% 0in /  0.0mm 0 W/m2
03:07 36.3 °F /  2.4 °C 34.2 °F /  1.2 °C 29.8in /  1007.8hPa WNW 2mph /  3.2km/h 7mph /  11.3km/h 92% 0in /  0.0mm 0 W/m2
03:12 36.3 °F /  2.4 °C 34.2 °F /  1.2 °C 29.8in /  1008.1hPa West 2.9mph /  4.7km/h 6mph /  9.7km/h 92% 0in /  0.0mm 0 W/m2
03:17 36.3 °F /  2.4 °C 34.2 °F /  1.2 °C 29.8in /  1008.1hPa NW 2mph /  3.2km/h 4mph /  6.4km/h 92% 0in /  0.0mm 0 W/m2
03:22 36.3 °F /  2.4 °C 34.2 °F /  1.2 °C 29.8in /  1008.1hPa West 2mph /  3.2km/h 3mph /  4.8km/h 92% 0in /  0.0mm 0 W/m2
03:27 36.1 °F /  2.3 °C 34 °F /  1.1 °C 29.8in /  1008.1hPa WNW 2mph /  3.2km/h 4mph /  6.4km/h 92% 0in /  0.0mm 0 W/m2
03:32 36 °F /  2.2 °C 33.8 °F /  1 °C 29.8in /  1008.1hPa West 2.9mph /  4.7km/h 6mph /  9.7km/h 92% 0in /  0.0mm 0 W/m2
03:37 35.8 °F /  2.1 °C 33.6 °F /  0.9 °C 29.8in /  1008.1hPa WNW 2mph /  3.2km/h 3mph /  4.8km/h 92% 0in /  0.0mm 0 W/m2
03:42 35.8 °F /  2.1 °C 33.6 °F /  0.9 °C 29.8in /  1008.1hPa West 2mph /  3.2km/h 6mph /  9.7km/h 92% 0in /  0.0mm 0 W/m2
03:47 35.8 °F /  2.1 °C 34 °F /  1.1 °C 29.8in /  1008.1hPa West 2mph /  3.2km/h 3mph /  4.8km/h 93% 0in /  0.0mm 0 W/m2
03:52 35.8 °F /  2.1 °C 34 °F /  1.1 °C 29.8in /  1008.5hPa NNW 4mph /  6.4km/h 6mph /  9.7km/h 93% 0in /  0.0mm 0 W/m2
03:57 35.8 °F /  2.1 °C 34 °F /  1.1 °C 29.8in /  1008.5hPa NW 8.1mph /  13km/h 8mph /  12.9km/h 93% 0in /  0.0mm 0 W/m2
04:02 35.8 °F /  2.1 °C 34 °F /  1.1 °C 29.8in /  1008.5hPa WNW 2.9mph /  4.7km/h 7mph /  11.3km/h 93% 0in /  0.0mm 0 W/m2
04:07 35.8 °F /  2.1 °C 34 °F /  1.1 °C 29.8in /  1008.5hPa WNW 8mph /  12.9km/h 8mph /  12.9km/h 93% 0in /  0.0mm 0 W/m2
04:12 35.8 °F /  2.1 °C 34 °F /  1.1 °C 29.8in /  1008.5hPa WNW 4mph /  6.4km/h 8mph /  12.9km/h 93% 0in /  0.0mm 0 W/m2
04:17 35.8 °F /  2.1 °C 34 °F /  1.1 °C 29.8in /  1008.5hPa West 4mph /  6.4km/h 6mph /  9.7km/h 93% 0in /  0.0mm 0 W/m2
04:22 35.8 °F /  2.1 °C 34 °F /  1.1 °C 29.8in /  1008.5hPa WNW 2.9mph /  4.7km/h 8mph /  12.9km/h 93% 0in /  0.0mm 0 W/m2
04:27 35.8 °F /  2.1 °C 34 °F /  1.1 °C 29.8in /  1008.5hPa WSW 6.9mph /  11.1km/h 7mph /  11.3km/h 93% 0in /  0.0mm 0 W/m2
04:32 35.8 °F /  2.1 °C 34 °F /  1.1 °C 29.8in /  1008.5hPa West 6mph /  9.7km/h 8mph /  12.9km/h 93% 0in /  0.0mm 0 W/m2
04:37 35.6 °F /  2 °C 33.8 °F /  1 °C 29.8in /  1008.5hPa WSW 6mph /  9.7km/h 7mph /  11.3km/h 93% 0in /  0.0mm 0 W/m2
04:42 35.6 °F /  2 °C 33.8 °F /  1 °C 29.8in /  1008.5hPa West 2mph /  3.2km/h 6mph /  9.7km/h 93% 0in /  0.0mm 0 W/m2
04:47 35.6 °F /  2 °C 33.8 °F /  1 °C 29.8in /  1008.5hPa West 2mph /  3.2km/h 5mph /  8km/h 93% 0in /  0.0mm 0 W/m2
04:52 35.4 °F /  1.9 °C 33.6 °F /  0.9 °C 29.8in /  1008.5hPa West 2.9mph /  4.7km/h 8mph /  12.9km/h 93% 0in /  0.0mm 0 W/m2
04:57 35.4 °F /  1.9 °C 33.3 °F /  0.7 °C 29.8in /  1008.5hPa West 4mph /  6.4km/h 7mph /  11.3km/h 92% 0in /  0.0mm 0 W/m2
05:02 35.4 °F /  1.9 °C 33.3 °F /  0.7 °C 29.8in /  1008.8hPa West 2.9mph /  4.7km/h 6mph /  9.7km/h 92% 0in /  0.0mm 0 W/m2
05:07 35.4 °F /  1.9 °C 33.3 °F /  0.7 °C 29.8in /  1008.8hPa WNW 2mph /  3.2km/h 4mph /  6.4km/h 92% 0in /  0.0mm 0 W/m2
05:12 35.4 °F /  1.9 °C 33.6 °F /  0.9 °C 29.8in /  1008.8hPa WSW 2.9mph /  4.7km/h 4mph /  6.4km/h 93% 0in /  0.0mm 0 W/m2
05:17 35.4 °F /  1.9 °C 33.6 °F /  0.9 °C 29.8in /  1008.8hPa West 2.9mph /  4.7km/h 4mph /  6.4km/h 93% 0in /  0.0mm 0 W/m2
05:22 35.4 °F /  1.9 °C 33.6 °F /  0.9 °C 29.8in /  1008.8hPa West 2mph /  3.2km/h 4mph /  6.4km/h 93% 0in /  0.0mm 0 W/m2
05:27 35.2 °F /  1.8 °C 33.1 °F /  0.6 °C 29.8in /  1008.8hPa WNW 2mph /  3.2km/h 9mph /  14.5km/h 92% 0in /  0.0mm 0 W/m2
05:32 35.2 °F /  1.8 °C 33.1 °F /  0.6 °C 29.8in /  1008.8hPa West 2.9mph /  4.7km/h 7mph /  11.3km/h 92% 0in /  0.0mm 0 W/m2
05:37 35.4 °F /  1.9 °C 33.3 °F /  0.7 °C 29.8in /  1008.8hPa WNW 4mph /  6.4km/h 9mph /  14.5km/h 92% 0in /  0.0mm 0 W/m2
05:42 35.2 °F /  1.8 °C 33.1 °F /  0.6 °C 29.8in /  1008.8hPa WSW 2.9mph /  4.7km/h 7mph /  11.3km/h 92% 0in /  0.0mm 0 W/m2
05:47 35.2 °F /  1.8 °C 33.1 °F /  0.6 °C 29.8in /  1009.1hPa West 2.9mph /  4.7km/h 7mph /  11.3km/h 92% 0in /  0.0mm 0 W/m2
05:53 35.2 °F /  1.8 °C 33.1 °F /  0.6 °C 29.8in /  1009.1hPa WNW 2.9mph /  4.7km/h 8mph /  12.9km/h 92% 0in /  0.0mm 0 W/m2
05:58 35.2 °F /  1.8 °C 33.1 °F /  0.6 °C 29.8in /  1009.1hPa West 2.9mph /  4.7km/h 4mph /  6.4km/h 92% 0in /  0.0mm 0 W/m2
06:03 35.2 °F /  1.8 °C 33.1 °F /  0.6 °C 29.8in /  1009.1hPa West 2.9mph /  4.7km/h 7mph /  11.3km/h 92% 0in /  0.0mm 0 W/m2
06:08 35.2 °F /  1.8 °C 33.1 °F /  0.6 °C 29.8in /  1009.1hPa West 0.9mph /  1.4km/h 6mph /  9.7km/h 92% 0in /  0.0mm 0 W/m2
06:13 35.2 °F /  1.8 °C 33.1 °F /  0.6 °C 29.8in /  1009.1hPa West 8.1mph /  13km/h 8mph /  12.9km/h 92% 0in /  0.0mm 0 W/m2
06:18 35.2 °F /  1.8 °C 33.1 °F /  0.6 °C 29.8in /  1009.1hPa NW 2mph /  3.2km/h 5mph /  8km/h 92% 0in /  0.0mm 0 W/m2
06:23 35.2 °F /  1.8 °C 33.1 °F /  0.6 °C 29.8in /  1009.1hPa West 2mph /  3.2km/h 3mph /  4.8km/h 92% 0in /  0.0mm 0 W/m2
06:28 35.2 °F /  1.8 °C 33.1 °F /  0.6 °C 29.8in /  1009.5hPa WSW 2.9mph /  4.7km/h 4mph /  6.4km/h 92% 0in /  0.0mm 0 W/m2
06:33 35.1 °F /  1.7 °C 32.9 °F /  0.5 °C 29.8in /  1009.5hPa WSW 2mph /  3.2km/h 6mph /  9.7km/h 92% 0in /  0.0mm 0 W/m2
06:38 35.1 °F /  1.7 °C 32.9 °F /  0.5 °C 29.8in /  1009.5hPa WSW 2.9mph /  4.7km/h 6mph /  9.7km/h 92% 0in /  0.0mm 0 W/m2
06:43 35.1 °F /  1.7 °C 32.9 °F /  0.5 °C 29.8in /  1009.8hPa West 2.9mph /  4.7km/h 4mph /  6.4km/h 92% 0in /  0.0mm 0 W/m2
06:48 35.1 °F /  1.7 °C 32.9 °F /  0.5 °C 29.8in /  1009.8hPa WSW 4mph /  6.4km/h 6mph /  9.7km/h 92% 0in /  0.0mm 0 W/m2
06:53 35.1 °F /  1.7 °C 32.9 °F /  0.5 °C 29.8in /  1009.8hPa West 2.9mph /  4.7km/h 3mph /  4.8km/h 92% 0in /  0.0mm 0 W/m2
06:58 34.9 °F /  1.6 °C 32.7 °F /  0.4 °C 29.8in /  1009.8hPa West 2mph /  3.2km/h 4mph /  6.4km/h 92% 0in /  0.0mm 0 W/m2
07:03 34.9 °F /  1.6 °C 32.7 °F /  0.4 °C 29.8in /  1009.8hPa WNW 4mph /  6.4km/h 5mph /  8km/h 92% 0in /  0.0mm 0 W/m2
07:08 34.7 °F /  1.5 °C 32.5 °F /  0.3 °C 29.8in /  1009.8hPa WSW 6mph /  9.7km/h 6mph /  9.7km/h 92% 0in /  0.0mm 0 W/m2
07:13 34.7 °F /  1.5 °C 32.5 °F /  0.3 °C 29.8in /  1009.8hPa West 2.9mph /  4.7km/h 6mph /  9.7km/h 92% 0in /  0.0mm 0 W/m2
07:18 34.5 °F /  1.4 °C 32.4 °F /  0.2 °C 29.8in /  1010.2hPa West 2mph /  3.2km/h 7mph /  11.3km/h 92% 0in /  0.0mm 0 W/m2
07:23 34.3 °F /  1.3 °C 32.2 °F /  0.1 °C 29.8in /  1009.8hPa WNW 2mph /  3.2km/h 7mph /  11.3km/h 92% 0in /  0.0mm 0 W/m2
07:28 34.2 °F /  1.2 °C 32 °F /  0 °C 29.8in /  1010.2hPa West 6mph /  9.7km/h 10mph /  16.1km/h 92% 0in /  0.0mm 0 W/m2
07:33 34.2 °F /  1.2 °C 32 °F /  0 °C 29.8in /  1010.2hPa West 2mph /  3.2km/h 7mph /  11.3km/h 92% 0in /  0.0mm 0 W/m2
07:38 34 °F /  1.1 °C 31.8 °F /  -0.1 °C 29.8in /  1010.2hPa WNW 2.9mph /  4.7km/h 8mph /  12.9km/h 92% 0in /  0.0mm 0 W/m2
07:43 34 °F /  1.1 °C 31.8 °F /  -0.1 °C 29.8in /  1009.8hPa WNW 4.9mph /  7.9km/h 6mph /  9.7km/h 92% 0in /  0.0mm 0 W/m2
07:48 34 °F /  1.1 °C 31.8 °F /  -0.1 °C 29.8in /  1009.8hPa WSW 2mph /  3.2km/h 8mph /  12.9km/h 92% 0in /  0.0mm 0 W/m2
07:53 34 °F /  1.1 °C 31.8 °F /  -0.1 °C 29.8in /  1009.8hPa WSW 2mph /  3.2km/h 4mph /  6.4km/h 92% 0in /  0.0mm 0 W/m2
07:58 34 °F /  1.1 °C 31.8 °F /  -0.1 °C 29.8in /  1009.8hPa West 6mph /  9.7km/h 9mph /  14.5km/h 92% 0in /  0.0mm 0 W/m2
08:03 34 °F /  1.1 °C 31.6 °F /  -0.2 °C 29.8in /  1010.2hPa WNW 2mph /  3.2km/h 4mph /  6.4km/h 91% 0in /  0.0mm 0 W/m2
08:08 34 °F /  1.1 °C 31.6 °F /  -0.2 °C 29.8in /  1010.2hPa WNW 2mph /  3.2km/h 9mph /  14.5km/h 91% 0in /  0.0mm 0 W/m2
08:13 34 °F /  1.1 °C 31.6 °F /  -0.2 °C 29.8in /  1010.2hPa NW 2.9mph /  4.7km/h 7mph /  11.3km/h 91% 0in /  0.0mm 0 W/m2
08:18 34 °F /  1.1 °C 31.6 °F /  -0.2 °C 29.8in /  1010.2hPa WNW 0.9mph /  1.4km/h 2mph /  3.2km/h 91% 0in /  0.0mm 0 W/m2
08:23 34 °F /  1.1 °C 31.6 °F /  -0.2 °C 29.8in /  1010.2hPa Calm   7mph /  11.3km/h 91% 0in /  0.0mm 0 W/m2
08:28 34 °F /  1.1 °C 31.6 °F /  -0.2 °C 29.8in /  1010.2hPa WSW 0.9mph /  1.4km/h 3mph /  4.8km/h 91% 0in /  0.0mm 0 W/m2
08:33 34 °F /  1.1 °C 31.6 °F /  -0.2 °C 29.8in /  1010.2hPa WNW 2.9mph /  4.7km/h 4mph /  6.4km/h 91% 0in /  0.0mm 5 W/m2
08:38 33.8 °F /  1 °C 31.5 °F /  -0.3 °C 29.8in /  1010.2hPa West 2mph /  3.2km/h 4mph /  6.4km/h 91% 0in /  0.0mm 7 W/m2
08:43 33.8 °F /  1 °C 31.5 °F /  -0.3 °C 29.8in /  1009.8hPa West 0.9mph /  1.4km/h 3mph /  4.8km/h 91% 0in /  0.0mm 9 W/m2
08:48 33.6 °F /  0.9 °C 31.3 °F /  -0.4 °C 29.8in /  1010.2hPa Calm   2mph /  3.2km/h 91% 0in /  0.0mm 11 W/m2
08:53 33.6 °F /  0.9 °C 31.3 °F /  -0.4 °C 29.8in /  1010.2hPa West 0.9mph /  1.4km/h 2mph /  3.2km/h 91% 0in /  0.0mm 16 W/m2
08:58 33.6 °F /  0.9 °C 31.3 °F /  -0.4 °C 29.8in /  1010.2hPa West 0.9mph /  1.4km/h 4mph /  6.4km/h 91% 0in /  0.0mm 19 W/m2
09:03 33.6 °F /  0.9 °C 31.3 °F /  -0.4 °C 29.8in /  1010.2hPa WNW 2.9mph /  4.7km/h 6mph /  9.7km/h 91% 0in /  0.0mm 23 W/m2
09:08 33.6 °F /  0.9 °C 31.3 °F /  -0.4 °C 29.8in /  1010.2hPa West 2mph /  3.2km/h 3mph /  4.8km/h 91% 0in /  0.0mm 21 W/m2
09:13 33.6 °F /  0.9 °C 31.3 °F /  -0.4 °C 29.8in /  1010.2hPa WNW 4mph /  6.4km/h 6mph /  9.7km/h 91% 0in /  0.0mm 19 W/m2
09:18 33.8 °F /  1 °C 31.5 °F /  -0.3 °C 29.8in /  1010.2hPa West 0.9mph /  1.4km/h 3mph /  4.8km/h 91% 0in /  0.0mm 18 W/m2
09:23 33.8 °F /  1 °C 31.5 °F /  -0.3 °C 29.8in /  1010.2hPa WNW 2mph /  3.2km/h 4mph /  6.4km/h 91% 0in /  0.0mm 25 W/m2
09:28 34 °F /  1.1 °C 31.6 °F /  -0.2 °C 29.8in /  1010.2hPa Calm   3mph /  4.8km/h 91% 0in /  0.0mm 25 W/m2
09:33 34 °F /  1.1 °C 31.6 °F /  -0.2 °C 29.8in /  1010.2hPa WNW 2mph /  3.2km/h 5mph /  8km/h 91% 0in /  0.0mm 32 W/m2
09:38 34 °F /  1.1 °C 31.6 °F /  -0.2 °C 29.8in /  1010.2hPa WNW 2mph /  3.2km/h 3mph /  4.8km/h 91% 0in /  0.0mm 39 W/m2
09:43 34 °F /  1.1 °C 31.6 °F /  -0.2 °C 29.8in /  1010.2hPa WNW 2.9mph /  4.7km/h 5mph /  8km/h 91% 0in /  0.0mm 32 W/m2
09:48 34 °F /  1.1 °C 31.6 °F /  -0.2 °C 29.8in /  1010.2hPa WNW 2mph /  3.2km/h 6mph /  9.7km/h 91% 0in /  0.0mm 32 W/m2
09:53 34 °F /  1.1 °C 31.6 °F /  -0.2 °C 29.8in /  1010.2hPa WSW 2.9mph /  4.7km/h 7mph /  11.3km/h 91% 0in /  0.0mm 44 W/m2
09:58 34 °F /  1.1 °C 31.6 °F /  -0.2 °C 29.8in /  1010.2hPa WNW 4mph /  6.4km/h 4mph /  6.4km/h 91% 0in /  0.0mm 49 W/m2
10:03 34 °F /  1.1 °C 31.6 °F /  -0.2 °C 29.8in /  1010.5hPa WNW 4mph /  6.4km/h 7mph /  11.3km/h 91% 0in /  0.0mm 40 W/m2
10:08 33.6 °F /  0.9 °C 31.3 °F /  -0.4 °C 29.9in /  1010.8hPa West 0.9mph /  1.4km/h 6mph /  9.7km/h 91% 0in /  0.0mm 35 W/m2
10:13 33.6 °F /  0.9 °C 30.9 °F /  -0.6 °C 29.9in /  1010.8hPa WSW 0.9mph /  1.4km/h 4mph /  6.4km/h 90% 0in /  0.0mm 44 W/m2
10:18 33.6 °F /  0.9 °C 31.3 °F /  -0.4 °C 29.9in /  1010.8hPa West 2.9mph /  4.7km/h 7mph /  11.3km/h 91% 0in /  0.0mm 42 W/m2
10:23 33.6 °F /  0.9 °C 30.9 °F /  -0.6 °C 29.9in /  1010.8hPa WSW 2mph /  3.2km/h 4mph /  6.4km/h 90% 0in /  0.0mm 53 W/m2
10:28 33.6 °F /  0.9 °C 31.3 °F /  -0.4 °C 29.9in /  1010.8hPa West 4mph /  6.4km/h 4mph /  6.4km/h 91% 0in /  0.0mm 56 W/m2
10:33 33.6 °F /  0.9 °C 30.9 °F /  -0.6 °C 29.9in /  1010.8hPa West 2.9mph /  4.7km/h 4mph /  6.4km/h 90% 0in /  0.0mm 49 W/m2
10:38 33.6 °F /  0.9 °C 30.9 °F /  -0.6 °C 29.9in /  1011.2hPa NW 2mph /  3.2km/h 3mph /  4.8km/h 90% 0in /  0.0mm 53 W/m2
10:43 33.6 °F /  0.9 °C 31.3 °F /  -0.4 °C 29.9in /  1011.5hPa Calm   2mph /  3.2km/h 91% 0in /  0.0mm 42 W/m2
10:48 33.6 °F /  0.9 °C 30.9 °F /  -0.6 °C 29.9in /  1011.5hPa NW 0.9mph /  1.4km/h 2mph /  3.2km/h 90% 0in /  0.0mm 44 W/m2
10:53 33.6 °F /  0.9 °C 30.9 °F /  -0.6 °C 29.9in /  1011.5hPa Calm   2mph /  3.2km/h 90% 0in /  0.0mm 33 W/m2
10:58 33.6 °F /  0.9 °C 30.9 °F /  -0.6 °C 29.9in /  1011.9hPa Calm   1mph /  1.6km/h 90% 0in /  0.0mm 33 W/m2
11:03 33.6 °F /  0.9 °C 30.9 °F /  -0.6 °C 29.9in /  1011.9hPa NE 0.9mph /  1.4km/h 3mph /  4.8km/h 90% 0in /  0.0mm 28 W/m2
11:08 33.6 °F /  0.9 °C 30.9 °F /  -0.6 °C 29.9in /  1011.5hPa Calm     90% 0in /  0.0mm 33 W/m2
11:13 33.6 °F /  0.9 °C 30.9 °F /  -0.6 °C 29.9in /  1011.5hPa North 2mph /  3.2km/h 3mph /  4.8km/h 90% 0in /  0.0mm 47 W/m2
11:18 33.6 °F /  0.9 °C 30.9 °F /  -0.6 °C 29.9in /  1011.2hPa West 4mph /  6.4km/h 4mph /  6.4km/h 90% 0in /  0.0mm 70 W/m2
11:23 33.6 °F /  0.9 °C 31.3 °F /  -0.4 °C 29.9in /  1010.8hPa West 0.9mph /  1.4km/h 5mph /  8km/h 91% 0in /  0.0mm 79 W/m2
11:28 33.8 °F /  1 °C 31.1 °F /  -0.5 °C 29.9in /  1010.8hPa NW 2mph /  3.2km/h 3mph /  4.8km/h 90% 0in /  0.0mm 90 W/m2
11:33 33.8 °F /  1 °C 31.1 °F /  -0.5 °C 29.8in /  1010.5hPa NW 2mph /  3.2km/h 5mph /  8km/h 90% 0in /  0.0mm 97 W/m2
11:38 34 °F /  1.1 °C 31.3 °F /  -0.4 °C 29.9in /  1010.8hPa WNW 2mph /  3.2km/h 4mph /  6.4km/h 90% 0in /  0.0mm 88 W/m2
11:44 34 °F /  1.1 °C 31.6 °F /  -0.2 °C 29.8in /  1010.5hPa West 2mph /  3.2km/h 5mph /  8km/h 91% 0in /  0.0mm 107 W/m2
11:49 33.8 °F /  1 °C 31.1 °F /  -0.5 °C 29.8in /  1010.5hPa WNW 2mph /  3.2km/h 2mph /  3.2km/h 90% 0in /  0.0mm 113 W/m2
11:54 33.6 °F /  0.9 °C 30.9 °F /  -0.6 °C 29.8in /  1010.5hPa WSW 4mph /  6.4km/h 6mph /  9.7km/h 90% 0in /  0.0mm 114 W/m2
11:59 33.6 °F /  0.9 °C 30.9 °F /  -0.6 °C 29.8in /  1010.5hPa WNW 0.9mph /  1.4km/h 5mph /  8km/h 90% 0in /  0.0mm 104 W/m2
12:04 33.8 °F /  1 °C 31.1 °F /  -0.5 °C 29.8in /  1010.5hPa WNW 2mph /  3.2km/h 3mph /  4.8km/h 90% 0in /  0.0mm 88 W/m2
12:09 33.6 °F /  0.9 °C 31.3 °F /  -0.4 °C 29.8in /  1010.5hPa West 2.9mph /  4.7km/h 7mph /  11.3km/h 91% 0in /  0.0mm 105 W/m2
12:14 33.6 °F /  0.9 °C 31.3 °F /  -0.4 °C 29.8in /  1010.5hPa WNW 6mph /  9.7km/h 6mph /  9.7km/h 91% 0in /  0.0mm 125 W/m2
12:19 33.4 °F /  0.8 °C 30.7 °F /  -0.7 °C 29.8in /  1010.5hPa NNW 4mph /  6.4km/h 4mph /  6.4km/h 90% 0in /  0.0mm 114 W/m2
12:24 33.3 °F /  0.7 °C 30.9 °F /  -0.6 °C 29.8in /  1010.5hPa NNW 2.9mph /  4.7km/h 3mph /  4.8km/h 91% 0in /  0.0mm 102 W/m2
12:29 33.3 °F /  0.7 °C 30.9 °F /  -0.6 °C 29.8in /  1010.5hPa WNW 2.9mph /  4.7km/h 7mph /  11.3km/h 91% 0in /  0.0mm 91 W/m2
12:34 33.3 °F /  0.7 °C 30.9 °F /  -0.6 °C 29.8in /  1010.5hPa NW 4mph /  6.4km/h 7mph /  11.3km/h 91% 0in /  0.0mm 81 W/m2
12:39 33.3 °F /  0.7 °C 30.9 °F /  -0.6 °C 29.8in /  1010.5hPa WSW 2.9mph /  4.7km/h 3mph /  4.8km/h 91% 0in /  0.0mm 81 W/m2
12:44 33.3 °F /  0.7 °C 30.9 °F /  -0.6 °C 29.8in /  1010.5hPa WNW 2mph /  3.2km/h 3mph /  4.8km/h 91% 0in /  0.0mm 69 W/m2
12:49 33.3 °F /  0.7 °C 30.9 °F /  -0.6 °C 29.8in /  1010.5hPa Calm   2mph /  3.2km/h 91% 0in /  0.0mm 70 W/m2
12:54 33.4 °F /  0.8 °C 31.3 °F /  -0.4 °C 29.8in /  1010.5hPa Calm   2mph /  3.2km/h 92% 0in /  0.0mm 72 W/m2
12:59 33.4 °F /  0.8 °C 31.1 °F /  -0.5 °C 29.8in /  1010.5hPa West 2mph /  3.2km/h 4mph /  6.4km/h 91% 0in /  0.0mm 72 W/m2
13:04 33.3 °F /  0.7 °C 30.9 °F /  -0.6 °C 29.8in /  1010.5hPa West 0.9mph /  1.4km/h 6mph /  9.7km/h 91% 0in /  0.0mm 63 W/m2
13:09 33.3 °F /  0.7 °C 31.1 °F /  -0.5 °C 29.9in /  1010.8hPa SSW 0.9mph /  1.4km/h 2mph /  3.2km/h 92% 0in /  0.0mm 53 W/m2
13:14 33.3 °F /  0.7 °C 31.1 °F /  -0.5 °C 29.8in /  1010.5hPa NW 2mph /  3.2km/h 3mph /  4.8km/h 92% 0in /  0.0mm 54 W/m2
13:19 33.3 °F /  0.7 °C 31.1 °F /  -0.5 °C 29.8in /  1010.5hPa SW 0.9mph /  1.4km/h 3mph /  4.8km/h 92% 0in /  0.0mm 58 W/m2
13:24 33.3 °F /  0.7 °C 31.1 °F /  -0.5 °C 29.8in /  1010.5hPa Calm   3mph /  4.8km/h 92% 0in /  0.0mm 56 W/m2
13:29 33.3 °F /  0.7 °C 31.1 °F /  -0.5 °C 29.8in /  1010.5hPa West 2mph /  3.2km/h 3mph /  4.8km/h 92% 0in /  0.0mm 49 W/m2
13:34 33.3 °F /  0.7 °C 31.1 °F /  -0.5 °C 29.8in /  1010.5hPa WSW 0.9mph /  1.4km/h 4mph /  6.4km/h 92% 0in /  0.0mm 51 W/m2
13:39 33.3 °F /  0.7 °C 31.1 °F /  -0.5 °C 29.8in /  1010.5hPa WSW 2mph /  3.2km/h 3mph /  4.8km/h 92% 0in /  0.0mm 62 W/m2
13:44 33.3 °F /  0.7 °C 31.1 °F /  -0.5 °C 29.8in /  1010.5hPa WNW 0.9mph /  1.4km/h 4mph /  6.4km/h 92% 0in /  0.0mm 54 W/m2
13:49 33.1 °F /  0.6 °C 31.1 °F /  -0.5 °C 29.8in /  1010.5hPa West 6mph /  9.7km/h 8mph /  12.9km/h 92% 0in /  0.0mm 47 W/m2
13:54 32.9 °F /  0.5 °C 30.9 °F /  -0.6 °C 29.8in /  1010.5hPa WNW 2.9mph /  4.7km/h 3mph /  4.8km/h 92% 0in /  0.0mm 42 W/m2
13:59 32.9 °F /  0.5 °C 30.9 °F /  -0.6 °C 29.8in /  1010.5hPa NW 2.9mph /  4.7km/h 8mph /  12.9km/h 92% 0in /  0.0mm 37 W/m2
14:04 33.1 °F /  0.6 °C 31.3 °F /  -0.4 °C 29.8in /  1010.5hPa West 2.9mph /  4.7km/h 3mph /  4.8km/h 93% 0in /  0.0mm 35 W/m2
14:09 33.1 °F /  0.6 °C 31.3 °F /  -0.4 °C 29.8in /  1010.5hPa West 2mph /  3.2km/h 3mph /  4.8km/h 93% 0in /  0.0mm 33 W/m2
14:14 33.1 °F /  0.6 °C 31.3 °F /  -0.4 °C 29.8in /  1010.5hPa Calm   2mph /  3.2km/h 93% 0in /  0.0mm 35 W/m2
14:19 33.1 °F /  0.6 °C 31.3 °F /  -0.4 °C 29.8in /  1010.5hPa WNW 2mph /  3.2km/h 3mph /  4.8km/h 93% 0in /  0.0mm 35 W/m2
14:24 33.1 °F /  0.6 °C 31.3 °F /  -0.4 °C 29.8in /  1010.5hPa Calm   2mph /  3.2km/h 93% 0in /  0.0mm 32 W/m2
14:29 33.1 °F /  0.6 °C 31.3 °F /  -0.4 °C 29.8in /  1010.5hPa Calm   4mph /  6.4km/h 93% 0in /  0.0mm 30 W/m2
14:34 33.1 °F /  0.6 °C 31.5 °F /  -0.3 °C 29.8in /  1010.5hPa WSW 0.9mph /  1.4km/h 3mph /  4.8km/h 94% 0in /  0.0mm 32 W/m2
14:39 33.1 °F /  0.6 °C 31.5 °F /  -0.3 °C 29.8in /  1010.5hPa Calm   4mph /  6.4km/h 94% 0in /  0.0mm 30 W/m2
14:44 33.1 °F /  0.6 °C 31.3 °F /  -0.4 °C 29.8in /  1010.5hPa Calm   2mph /  3.2km/h 93% 0in /  0.0mm 33 W/m2
14:49 33.1 °F /  0.6 °C 31.5 °F /  -0.3 °C 29.8in /  1010.5hPa WNW 0.9mph /  1.4km/h 2mph /  3.2km/h 94% 0in /  0.0mm 32 W/m2
14:54 33.3 °F /  0.7 °C 31.6 °F /  -0.2 °C 29.8in /  1010.5hPa Calm   1mph /  1.6km/h 94% 0in /  0.0mm 28 W/m2
14:59 33.3 °F /  0.7 °C 31.6 °F /  -0.2 °C 29.8in /  1010.5hPa Calm   2mph /  3.2km/h 94% 0in /  0.0mm 32 W/m2
15:04 33.3 °F /  0.7 °C 31.6 °F /  -0.2 °C 29.8in /  1010.5hPa West 0.9mph /  1.4km/h 1mph /  1.6km/h 94% 0in /  0.0mm 32 W/m2
15:09 33.3 °F /  0.7 °C 31.6 °F /  -0.2 °C 29.8in /  1010.5hPa Calm   1mph /  1.6km/h 94% 0in /  0.0mm 28 W/m2
15:14 33.3 °F /  0.7 °C 31.6 °F /  -0.2 °C 29.8in /  1010.5hPa NE 2mph /  3.2km/h 2mph /  3.2km/h 94% 0in /  0.0mm 26 W/m2
15:19 33.4 °F /  0.8 °C 31.8 °F /  -0.1 °C 29.8in /  1010.5hPa Calm   1mph /  1.6km/h 94% 0in /  0.0mm 21 W/m2
15:24 33.4 °F /  0.8 °C 31.8 °F /  -0.1 °C 29.8in /  1010.5hPa Calm   2mph /  3.2km/h 94% 0in /  0.0mm 19 W/m2
15:29 33.4 °F /  0.8 °C 31.8 °F /  -0.1 °C 29.8in /  1010.5hPa Calm   1mph /  1.6km/h 94% 0in /  0.0mm 18 W/m2
15:34 33.4 °F /  0.8 °C 31.8 °F /  -0.1 °C 29.8in /  1010.5hPa Calm   2mph /  3.2km/h 94% 0in /  0.0mm 18 W/m2
15:39 33.6 °F /  0.9 °C 32 °F /  0 °C 29.8in /  1010.5hPa Calm     94% 0in /  0.0mm 16 W/m2
15:44 33.6 °F /  0.9 °C 32 °F /  0 °C 29.8in /  1010.5hPa East 0.9mph /  1.4km/h 1mph /  1.6km/h 94% 0in /  0.0mm 14 W/m2
15:49 33.6 °F /  0.9 °C 32 °F /  0 °C 29.9in /  1010.8hPa Calm     94% 0in /  0.0mm 12 W/m2
15:54 33.6 °F /  0.9 °C 32 °F /  0 °C 29.9in /  1010.8hPa Calm   1mph /  1.6km/h 94% 0in /  0.0mm 11 W/m2
15:59 33.6 °F /  0.9 °C 32 °F /  0 °C 29.8in /  1010.5hPa Calm   1mph /  1.6km/h 94% 0in /  0.0mm 9 W/m2
16:04 33.8 °F /  1 °C 32.2 °F /  0.1 °C 29.8in /  1010.5hPa Calm   2mph /  3.2km/h 94% 0in /  0.0mm 7 W/m2
16:09 33.6 °F /  0.9 °C 32 °F /  0 °C 29.8in /  1010.5hPa ESE 2mph /  3.2km/h 3mph /  4.8km/h 94% 0in /  0.0mm 5 W/m2
16:14 33.6 °F /  0.9 °C 32 °F /  0 °C 29.9in /  1010.8hPa ESE 0.9mph /  1.4km/h 3mph /  4.8km/h 94% 0in /  0.0mm 5 W/m2
16:19 33.6 °F /  0.9 °C 32 °F /  0 °C 29.9in /  1010.8hPa Calm   2mph /  3.2km/h 94% 0in /  0.0mm 0 W/m2
16:25 33.6 °F /  0.9 °C 32 °F /  0 °C 29.9in /  1010.8hPa Calm   3mph /  4.8km/h 94% 0in /  0.0mm 0 W/m2
16:30 33.6 °F /  0.9 °C 32 °F /  0 °C 29.9in /  1010.8hPa ESE 2mph /  3.2km/h 2mph /  3.2km/h 94% 0in /  0.0mm 0 W/m2
16:35 33.6 °F /  0.9 °C 32 °F /  0 °C 29.9in /  1010.8hPa Calm     94% 0in /  0.0mm 0 W/m2
16:40 33.6 °F /  0.9 °C 32 °F /  0 °C 29.9in /  1010.8hPa Calm     94% 0in /  0.0mm 0 W/m2
16:45 33.6 °F /  0.9 °C 32 °F /  0 °C 29.9in /  1010.8hPa Calm     94% 0in /  0.0mm 0 W/m2
16:50 33.8 °F /  1 °C 32.2 °F /  0.1 °C 29.9in /  1010.8hPa Calm     94% 0in /  0.0mm 0 W/m2
16:55 33.8 °F /  1 °C 32.2 °F /  0.1 °C 29.8in /  1010.5hPa ENE 2mph /  3.2km/h 2mph /  3.2km/h 94% 0in /  0.0mm 0 W/m2
17:00 33.8 °F /  1 °C 32.2 °F /  0.1 °C 29.8in /  1010.5hPa Calm     94% 0in /  0.0mm 0 W/m2
17:05 33.8 °F /  1 °C 32.2 °F /  0.1 °C 29.8in /  1010.5hPa Calm     94% 0in /  0.0mm 0 W/m2
17:10 33.8 °F /  1 °C 32.2 °F /  0.1 °C 29.8in /  1010.5hPa Calm     94% 0in /  0.0mm 0 W/m2
17:15 33.8 °F /  1 °C 32.2 °F /  0.1 °C 29.8in /  1010.5hPa Calm     94% 0in /  0.0mm 0 W/m2
17:20 34 °F /  1.1 °C 32.4 °F /  0.2 °C 29.8in /  1010.5hPa Calm     94% 0in /  0.0mm 0 W/m2
17:25 34 °F /  1.1 °C 32.4 °F /  0.2 °C 29.8in /  1010.5hPa WSW 0.9mph /  1.4km/h 1mph /  1.6km/h 94% 0in /  0.0mm 0 W/m2
17:30 34 °F /  1.1 °C 32.4 °F /  0.2 °C 29.8in /  1010.5hPa Calm     94% 0in /  0.0mm 0 W/m2
17:35 34 °F /  1.1 °C 32.4 °F /  0.2 °C 29.9in /  1010.8hPa Calm     94% 0in /  0.0mm 0 W/m2
17:40 34 °F /  1.1 °C 32.4 °F /  0.2 °C 29.9in /  1010.8hPa Calm     94% 0in /  0.0mm 0 W/m2
17:45 34 °F /  1.1 °C 32.4 °F /  0.2 °C 29.9in /  1010.8hPa Calm     94% 0in /  0.0mm 0 W/m2
17:50 34 °F /  1.1 °C 32.4 °F /  0.2 °C 29.9in /  1010.8hPa SE 0.9mph /  1.4km/h 3mph /  4.8km/h 94% 0in /  0.0mm 0 W/m2
17:55 34 °F /  1.1 °C 32.4 °F /  0.2 °C 29.9in /  1010.8hPa Calm   1mph /  1.6km/h 94% 0in /  0.0mm 0 W/m2
18:00 34 °F /  1.1 °C 32.4 °F /  0.2 °C 29.9in /  1010.8hPa Calm     94% 0in /  0.0mm 0 W/m2
18:05 34 °F /  1.1 °C 32.4 °F /  0.2 °C 29.9in /  1010.8hPa Calm     94% 0in /  0.0mm 0 W/m2
18:10 34 °F /  1.1 °C 32.4 °F /  0.2 °C 29.9in /  1010.8hPa Calm   1mph /  1.6km/h 94% 0in /  0.0mm 0 W/m2
18:15 34.2 °F /  1.2 °C 32.5 °F /  0.3 °C 29.9in /  1010.8hPa SSE 0.9mph /  1.4km/h 2mph /  3.2km/h 94% 0in /  0.0mm 0 W/m2
18:20 34.2 °F /  1.2 °C 32.9 °F /  0.5 °C 29.9in /  1010.8hPa Calm   2mph /  3.2km/h 95% 0in /  0.0mm 0 W/m2
18:25 34.2 °F /  1.2 °C 32.5 °F /  0.3 °C 29.9in /  1010.8hPa Calm     94% 0in /  0.0mm 0 W/m2
18:30 34.2 °F /  1.2 °C 32.5 °F /  0.3 °C 29.9in /  1010.8hPa ESE 2mph /  3.2km/h 2mph /  3.2km/h 94% 0in /  0.0mm 0 W/m2
18:35 34.2 °F /  1.2 °C 32.9 °F /  0.5 °C 29.9in /  1010.8hPa ESE 0.9mph /  1.4km/h 1mph /  1.6km/h 95% 0in /  0.0mm 0 W/m2
18:40 34.2 °F /  1.2 °C 32.9 °F /  0.5 °C 29.9in /  1010.8hPa Calm   1mph /  1.6km/h 95% 0in /  0.0mm 0 W/m2
18:45 34.2 °F /  1.2 °C 32.9 °F /  0.5 °C 29.9in /  1010.8hPa ESE 2mph /  3.2km/h 2mph /  3.2km/h 95% 0in /  0.0mm 0 W/m2
18:50 34.2 °F /  1.2 °C 32.9 °F /  0.5 °C 29.9in /  1010.8hPa ESE 0.9mph /  1.4km/h 2mph /  3.2km/h 95% 0in /  0.0mm 0 W/m2
18:55 34.2 °F /  1.2 °C 32.9 °F /  0.5 °C 29.9in /  1010.8hPa Calm   2mph /  3.2km/h 95% 0in /  0.0mm 0 W/m2
19:00 34.2 °F /  1.2 °C 32.9 °F /  0.5 °C 29.9in /  1010.8hPa ESE 0.9mph /  1.4km/h 4mph /  6.4km/h 95% 0in /  0.0mm 0 W/m2
19:05 34.3 °F /  1.3 °C 33.1 °F /  0.6 °C 29.9in /  1010.8hPa Calm   1mph /  1.6km/h 95% 0in /  0.0mm 0 W/m2
19:10 34.3 °F /  1.3 °C 33.1 °F /  0.6 °C 29.9in /  1010.8hPa ESE 0.9mph /  1.4km/h 1mph /  1.6km/h 95% 0in /  0.0mm 0 W/m2
19:15 34.3 °F /  1.3 °C 33.1 °F /  0.6 °C 29.9in /  1010.8hPa Calm   3mph /  4.8km/h 95% 0in /  0.0mm 0 W/m2
19:20 34.3 °F /  1.3 °C 33.1 °F /  0.6 °C 29.9in /  1010.8hPa East 2mph /  3.2km/h 2mph /  3.2km/h 95% 0in /  0.0mm 0 W/m2
19:25 34.3 °F /  1.3 °C 33.1 °F /  0.6 °C 29.9in /  1010.8hPa East 0.9mph /  1.4km/h 3mph /  4.8km/h 95% 0in /  0.0mm 0 W/m2
19:30 34.3 °F /  1.3 °C 33.1 °F /  0.6 °C 29.9in /  1010.8hPa ESE 0.9mph /  1.4km/h 3mph /  4.8km/h 95% 0in /  0.0mm 0 W/m2
19:35 34.3 °F /  1.3 °C 33.1 °F /  0.6 °C 29.9in /  1010.8hPa ESE 0.9mph /  1.4km/h 3mph /  4.8km/h 95% 0in /  0.0mm 0 W/m2
19:40 34.3 °F /  1.3 °C 33.1 °F /  0.6 °C 29.9in /  1010.8hPa Calm   1mph /  1.6km/h 95% 0in /  0.0mm 0 W/m2
19:45 34.3 °F /  1.3 °C 33.1 °F /  0.6 °C 29.8in /  1010.5hPa Calm   3mph /  4.8km/h 95% 0in /  0.0mm 0 W/m2
19:50 34.3 °F /  1.3 °C 33.1 °F /  0.6 °C 29.8in /  1010.5hPa Calm     95% 0in /  0.0mm 0 W/m2
19:55 34.5 °F /  1.4 °C 33.3 °F /  0.7 °C 29.8in /  1010.5hPa ESE 0.9mph /  1.4km/h 1mph /  1.6km/h 95% 0in /  0.0mm 0 W/m2
20:05 34.5 °F /  1.4 °C 33.3 °F /  0.7 °C 29.8in /  1010.5hPa Calm   1mph /  1.6km/h 95% 0in /  0.0mm 0 W/m2
20:10 34.5 °F /  1.4 °C 33.3 °F /  0.7 °C 29.8in /  1010.5hPa Calm     95% 0in /  0.0mm 0 W/m2
20:15 34.5 °F /  1.4 °C 33.3 °F /  0.7 °C 29.8in /  1010.5hPa Calm     95% 0in /  0.0mm 0 W/m2
20:20 34.5 °F /  1.4 °C 33.3 °F /  0.7 °C 29.8in /  1010.5hPa ESE 2mph /  3.2km/h 2mph /  3.2km/h 95% 0in /  0.0mm 0 W/m2
20:25 34.5 °F /  1.4 °C 33.3 °F /  0.7 °C 29.8in /  1010.2hPa Calm   2mph /  3.2km/h 95% 0in /  0.0mm 0 W/m2
20:30 34.5 °F /  1.4 °C 33.3 °F /  0.7 °C 29.8in /  1010.2hPa Calm   1mph /  1.6km/h 95% 0in /  0.0mm 0 W/m2
20:35 34.5 °F /  1.4 °C 33.3 °F /  0.7 °C 29.8in /  1010.2hPa Calm     95% 0in /  0.0mm 0 W/m2
20:40 34.5 °F /  1.4 °C 33.3 °F /  0.7 °C 29.8in /  1010.5hPa Calm     95% 0in /  0.0mm 0 W/m2
20:45 34.5 °F /  1.4 °C 33.3 °F /  0.7 °C 29.8in /  1010.5hPa ENE 0.9mph /  1.4km/h 2mph /  3.2km/h 95% 0in /  0.0mm 0 W/m2
20:50 34.5 °F /  1.4 °C 33.3 °F /  0.7 °C 29.8in /  1010.5hPa ENE 0.9mph /  1.4km/h 1mph /  1.6km/h 95% 0in /  0.0mm 0 W/m2
20:55 34.5 °F /  1.4 °C 33.3 °F /  0.7 °C 29.8in /  1010.5hPa Calm   2mph /  3.2km/h 95% 0in /  0.0mm 0 W/m2
21:00 34.5 °F /  1.4 °C 33.3 °F /  0.7 °C 29.8in /  1010.5hPa Calm     95% 0in /  0.0mm 0 W/m2
21:05 34.5 °F /  1.4 °C 33.3 °F /  0.7 °C 29.8in /  1010.5hPa Calm     95% 0in /  0.0mm 0 W/m2
21:10 34.5 °F /  1.4 °C 33.3 °F /  0.7 °C 29.8in /  1010.5hPa Calm     95% 0in /  0.0mm 0 W/m2
21:15 34.5 °F /  1.4 °C 32.9 °F /  0.5 °C 29.8in /  1010.2hPa Calm     94% 0in /  0.0mm 0 W/m2
21:20 34.5 °F /  1.4 °C 32.9 °F /  0.5 °C 29.8in /  1010.2hPa Calm     94% 0in /  0.0mm 0 W/m2
21:25 34.5 °F /  1.4 °C 32.9 °F /  0.5 °C 29.8in /  1010.2hPa Calm     94% 0in /  0.0mm 0 W/m2
21:30 34.5 °F /  1.4 °C 33.3 °F /  0.7 °C 29.8in /  1010.2hPa Calm     95% 0in /  0.0mm 0 W/m2
21:35 34.5 °F /  1.4 °C 33.3 °F /  0.7 °C 29.8in /  1010.2hPa Calm     95% 0in /  0.0mm 0 W/m2
21:40 34.5 °F /  1.4 °C 33.3 °F /  0.7 °C 29.8in /  1010.5hPa Calm     95% 0in /  0.0mm 0 W/m2
21:45 34.5 °F /  1.4 °C 33.3 °F /  0.7 °C 29.8in /  1010.2hPa Calm     95% 0in /  0.0mm 0 W/m2
21:50 34.5 °F /  1.4 °C 33.3 °F /  0.7 °C 29.8in /  1010.5hPa Calm     95% 0in /  0.0mm 0 W/m2
21:55 34.5 °F /  1.4 °C 33.3 °F /  0.7 °C 29.8in /  1010.2hPa Calm     95% 0in /  0.0mm 0 W/m2
22:00 34.5 °F /  1.4 °C 33.3 °F /  0.7 °C 29.8in /  1010.5hPa Calm     95% 0in /  0.0mm 0 W/m2
22:05 34.5 °F /  1.4 °C 33.3 °F /  0.7 °C 29.8in /  1010.2hPa Calm     95% 0in /  0.0mm 0 W/m2
22:10 34.5 °F /  1.4 °C 33.3 °F /  0.7 °C 29.8in /  1010.2hPa Calm     95% 0in /  0.0mm 0 W/m2
22:15 34.5 °F /  1.4 °C 33.3 °F /  0.7 °C 29.8in /  1010.2hPa Calm     95% 0in /  0.0mm 0 W/m2
22:20 34.5 °F /  1.4 °C 33.3 °F /  0.7 °C 29.8in /  1010.2hPa Calm   1mph /  1.6km/h 95% 0in /  0.0mm 0 W/m2
22:25 34.5 °F /  1.4 °C 33.3 °F /  0.7 °C 29.8in /  1010.2hPa East 2mph /  3.2km/h 2mph /  3.2km/h 95% 0in /  0.0mm 0 W/m2
22:30 34.7 °F /  1.5 °C 33.4 °F /  0.8 °C 29.8in /  1010.2hPa ESE 0.9mph /  1.4km/h 2mph /  3.2km/h 95% 0in /  0.0mm 0 W/m2
22:35 34.7 °F /  1.5 °C 33.4 °F /  0.8 °C 29.8in /  1010.2hPa SE 2mph /  3.2km/h 2mph /  3.2km/h 95% 0in /  0.0mm 0 W/m2
22:40 34.7 °F /  1.5 °C 33.4 °F /  0.8 °C 29.8in /  1010.2hPa Calm   1mph /  1.6km/h 95% 0in /  0.0mm 0 W/m2
22:45 34.7 °F /  1.5 °C 33.4 °F /  0.8 °C 29.8in /  1010.2hPa Calm     95% 0in /  0.0mm 0 W/m2
22:50 34.7 °F /  1.5 °C 33.4 °F /  0.8 °C 29.8in /  1010.2hPa Calm   1mph /  1.6km/h 95% 0in /  0.0mm 0 W/m2
22:55 34.7 °F /  1.5 °C 33.4 °F /  0.8 °C 29.8in /  1010.2hPa Calm   1mph /  1.6km/h 95% 0in /  0.0mm 0 W/m2
23:01 34.7 °F /  1.5 °C 33.4 °F /  0.8 °C 29.8in /  1010.2hPa Calm     95% 0in /  0.0mm 0 W/m2
23:06 34.7 °F /  1.5 °C 33.4 °F /  0.8 °C 29.8in /  1010.2hPa ESE 0.9mph /  1.4km/h 2mph /  3.2km/h 95% 0in /  0.0mm 0 W/m2
23:11 34.7 °F /  1.5 °C 33.4 °F /  0.8 °C 29.8in /  1010.2hPa Calm   2mph /  3.2km/h 95% 0in /  0.0mm 0 W/m2
23:16 34.7 °F /  1.5 °C 33.4 °F /  0.8 °C 29.8in /  1009.8hPa Calm   1mph /  1.6km/h 95% 0in /  0.0mm 0 W/m2
23:21 34.7 °F /  1.5 °C 33.4 °F /  0.8 °C 29.8in /  1009.8hPa Calm   2mph /  3.2km/h 95% 0in /  0.0mm 0 W/m2
23:26 34.9 °F /  1.6 °C 33.6 °F /  0.9 °C 29.8in /  1009.8hPa Calm   1mph /  1.6km/h 95% 0in /  0.0mm 0 W/m2
23:31 34.9 °F /  1.6 °C 33.6 °F /  0.9 °C 29.8in /  1009.8hPa Calm     95% 0in /  0.0mm 0 W/m2
23:36 34.9 °F /  1.6 °C 33.6 °F /  0.9 °C 29.8in /  1009.8hPa Calm   2mph /  3.2km/h 95% 0in /  0.0mm 0 W/m2
23:41 34.9 °F /  1.6 °C 33.6 °F /  0.9 °C 29.8in /  1009.8hPa Calm   2mph /  3.2km/h 95% 0in /  0.0mm 0 W/m2
23:46 34.9 °F /  1.6 °C 33.6 °F /  0.9 °C 29.8in /  1009.5hPa Calm     95% 0in /  0.0mm 0 W/m2
23:51 34.9 °F /  1.6 °C 33.6 °F /  0.9 °C 29.8in /  1009.5hPa Calm   1mph /  1.6km/h 95% 0in /  0.0mm 0 W/m2
23:56 34.9 °F /  1.6 °C 33.6 °F /  0.9 °C 29.8in /  1009.5hPa East 0.9mph /  1.4km/h 1mph /  1.6km/h 95% 0in /  0.0mm 0 W/m2
Juneau County Weather
Compliments of Weather Underground - 4 mb